METAR Formatted Surface Weather Observation
Issued by NWS Charleston, WV

Home | Current Version | Previous Version | Text Only | Print | Product List | Glossary On
Versions: 1 2
000
SAUS41 KRLX 291404 COR
MTRCRW
METAR KCRW 291354Z 00000KT 10SM FEW100 SCT200 BKN300 22/18 A3012 RMK
AO2 SLP193 T02170183



USA.gov is the U.S. government's official web portal to all federal, state and local government web resources and services.